createdAt,value
2019-04-22T00:02:11.331Z,97020.37
2019-04-22T00:04:51.281Z,97021.39
2019-04-22T00:07:38.965Z,97020.50
2019-04-22T00:10:04.816Z,97018.35
2019-04-22T00:12:42.076Z,97014.20
2019-04-22T00:15:05.462Z,97008.19
2019-04-22T00:17:50.824Z,97012.25
2019-04-22T00:22:38.429Z,97013.47
2019-04-22T00:25:24.488Z,97015.28
2019-04-22T00:27:51.085Z,97005.98
2019-04-22T00:33:03.495Z,97004.53
2019-04-22T00:35:36.657Z,97003.06
2019-04-22T00:38:11.460Z,97001.06
2019-04-22T00:40:39.940Z,96992.41
2019-04-22T00:43:13.358Z,96988.94
2019-04-22T00:45:44.586Z,96993.39
2019-04-22T00:48:16.656Z,96986.44
2019-04-22T00:50:48.201Z,96985.05
2019-04-22T00:53:23.988Z,96989.48
2019-04-22T00:56:07.888Z,96984.71
2019-04-22T00:58:37.927Z,96979.02
2019-04-22T01:01:12.612Z,96983.90
2019-04-22T01:03:46.164Z,96976.45
2019-04-22T01:06:11.956Z,96976.27
2019-04-22T01:08:46.524Z,96978.34
2019-04-22T01:11:21.521Z,96977.55
2019-04-22T01:13:38.769Z,96969.27
2019-04-22T01:16:20.413Z,96975.24
2019-04-22T01:18:42.328Z,96966.66
2019-04-22T01:21:27.503Z,96960.50
2019-04-22T01:23:40.800Z,96961.91
2019-04-22T01:26:17.274Z,96959.60
2019-04-22T01:28:43.430Z,96961.19
2019-04-22T01:31:07.843Z,96955.41
2019-04-22T01:33:38.996Z,96957.56
2019-04-22T01:36:26.034Z,96949.89
2019-04-22T01:38:58.276Z,96951.67
2019-04-22T01:41:42.074Z,96951.48
2019-04-22T01:44:27.261Z,96946.88
2019-04-22T01:46:36.690Z,96949.63
2019-04-22T01:49:08.191Z,96950.13
2019-04-22T01:51:49.969Z,96944.15
2019-04-22T01:54:12.899Z,96944.48
2019-04-22T01:56:40.950Z,96941.91
2019-04-22T01:59:05.108Z,96939.60
2019-04-22T02:01:47.246Z,96937.56
2019-04-22T02:04:17.857Z,96931.55
2019-04-22T02:14:19.862Z,96916.44
2019-04-22T02:16:49.809Z,96917.08
2019-04-22T02:19:22.545Z,96911.15
2019-04-22T02:21:51.061Z,96904.56
2019-04-22T02:24:26.429Z,96907.65
2019-04-22T02:26:54.261Z,96907.45
2019-04-22T02:29:29.818Z,96905.05
2019-04-22T02:34:40.026Z,96893.99
2019-04-22T02:37:03.191Z,96885.98
2019-04-22T02:39:38.307Z,96889.49
2019-04-22T02:44:40.835Z,96881.97
2019-04-22T02:49:39.885Z,96875.94
2019-04-22T02:52:20.292Z,96869.02
2019-04-22T02:57:28.098Z,96864.97
2019-04-22T02:59:53.906Z,96868.00
2019-04-22T03:02:19.632Z,96869.92
2019-04-22T03:04:47.254Z,96861.98
2019-04-22T03:07:21.199Z,96866.82
2019-04-22T03:09:55.424Z,96861.41
2019-04-22T03:17:29.208Z,96858.77
2019-04-22T03:19:59.266Z,96850.45
2019-04-22T03:22:28.642Z,96849.05
2019-04-22T03:27:29.708Z,96848.48
2019-04-22T03:37:49.135Z,96847.86
2019-04-22T03:47:50.860Z,96841.59
2019-04-22T03:50:20.733Z,96842.28
2019-04-22T03:53:01.942Z,96834.50
2019-04-22T03:55:25.737Z,96843.84
2019-04-22T04:03:00.897Z,96831.52
2019-04-22T04:08:16.358Z,96832.36
2019-04-22T04:13:05.710Z,96818.77
2019-04-22T04:15:34.598Z,96824.23
2019-04-22T04:17:59.408Z,96824.47
2019-04-22T04:30:36.571Z,96825.09
2019-04-22T04:33:23.359Z,96820.95
2019-04-22T04:37:58.827Z,96817.91
2019-04-22T04:40:43.069Z,96822.61
2019-04-22T04:43:18.845Z,96819.76
2019-04-22T04:48:21.104Z,96826.97
2019-04-22T04:51:12.212Z,96816.20
2019-04-22T04:55:59.827Z,96824.47
2019-04-22T04:58:40.775Z,96818.51
2019-04-22T05:00:58.027Z,96816.48
2019-04-22T05:03:29.746Z,96817.54
2019-04-22T05:05:59.339Z,96805.94
2019-04-22T05:08:46.707Z,96806.65
2019-04-22T05:11:11.506Z,96810.88
2019-04-22T05:13:35.308Z,96808.70
2019-04-22T05:16:17.379Z,96807.81
2019-04-22T05:21:10.590Z,96810.18
2019-04-22T05:23:39.427Z,96809.55
2019-04-22T05:26:07.419Z,96810.87
2019-04-22T05:28:35.395Z,96804.00
2019-04-22T05:31:08.620Z,96799.13
2019-04-22T05:33:36.015Z,96800.44
2019-04-22T05:36:07.229Z,96798.61
2019-04-22T05:38:51.345Z,96809.77
2019-04-22T05:41:10.187Z,96806.53
2019-04-22T05:43:44.243Z,96803.50
2019-04-22T05:46:10.871Z,96806.83
2019-04-22T05:48:47.813Z,96802.14
2019-04-22T05:51:23.997Z,96808.23
2019-04-22T05:53:48.388Z,96808.02
2019-04-22T05:56:29.667Z,96809.45
2019-04-22T05:58:54.113Z,96798.72
2019-04-22T06:08:57.590Z,96802.89
2019-04-22T06:11:26.762Z,96799.99
2019-04-22T06:13:59.317Z,96797.90
2019-04-22T06:16:33.772Z,96791.23
2019-04-22T06:19:03.021Z,96785.55
2019-04-22T06:24:14.047Z,96786.81
2019-04-22T06:26:48.993Z,96782.13
2019-04-22T06:29:09.250Z,96789.67
2019-04-22T06:31:52.983Z,96792.86
2019-04-22T06:34:10.619Z,96791.37
2019-04-22T06:36:46.413Z,96783.98
2019-04-22T06:39:14.338Z,96787.53
2019-04-22T06:46:47.442Z,96775.48
2019-04-22T06:49:19.558Z,96780.30
2019-04-22T06:51:53.793Z,96776.16
2019-04-22T06:54:21.840Z,96775.50
2019-04-22T06:56:49.221Z,96780.62
2019-04-22T06:59:19.078Z,96777.98
2019-04-22T07:01:55.013Z,96779.47
2019-04-22T07:04:25.679Z,96774.30
2019-04-22T07:11:58.388Z,96760.48
2019-04-22T07:14:22.731Z,96758.09
2019-04-22T07:16:57.453Z,96756.58
2019-04-22T07:19:36.085Z,96756.47
2019-04-22T07:22:03.261Z,96751.03
2019-04-22T07:27:04.693Z,96738.67
2019-04-22T07:29:42.485Z,96742.70
2019-04-22T07:32:11.116Z,96743.17
2019-04-22T07:34:40.913Z,96738.67
2019-04-22T07:37:23.108Z,96732.91
2019-04-22T07:39:44.243Z,96735.91
2019-04-22T07:42:14.712Z,96735.11
2019-04-22T07:44:48.104Z,96735.11
2019-04-22T07:47:20.512Z,96723.17
2019-04-22T07:52:20.269Z,96721.19
2019-04-22T07:54:52.426Z,96713.73
2019-04-22T07:59:58.063Z,96719.53
2019-04-22T08:02:26.095Z,96716.55
2019-04-22T08:07:33.278Z,96714.21
2019-04-22T08:12:36.205Z,96705.59
2019-04-22T08:14:58.393Z,96702.08
2019-04-22T08:17:51.820Z,96698.62
2019-04-22T08:20:14.077Z,96693.31
2019-04-22T08:22:39.911Z,96690.80
2019-04-22T08:25:04.166Z,96682.00
2019-04-22T08:27:39.537Z,96682.50
2019-04-22T08:30:14.377Z,96679.49
2019-04-22T08:32:44.142Z,96678.33
2019-04-22T08:35:12.985Z,96669.66
2019-04-22T08:37:51.035Z,96659.42
2019-04-22T08:40:25.338Z,96659.88
2019-04-22T08:42:55.263Z,96664.52
2019-04-22T08:45:14.349Z,96657.38
2019-04-22T08:47:49.834Z,96655.66
2019-04-22T08:50:21.766Z,96647.82
2019-04-22T08:52:57.550Z,96640.19
2019-04-22T08:55:29.706Z,96642.31
2019-04-22T08:58:17.980Z,96636.16
2019-04-22T09:00:34.233Z,96633.33
2019-04-22T09:03:00.733Z,96632.15
2019-04-22T09:05:42.422Z,96618.63
2019-04-22T09:08:05.865Z,96616.27
2019-04-22T09:10:32.867Z,96623.55
2019-04-22T09:13:17.073Z,96621.88
2019-04-22T09:15:36.029Z,96615.38
2019-04-22T09:18:08.743Z,96612.48
2019-04-22T09:20:40.415Z,96606.49
2019-04-22T09:23:07.596Z,96609.80
2019-04-22T09:25:44.081Z,96605.59
2019-04-22T09:28:30.597Z,96604.09
2019-04-22T09:30:47.109Z,96613.69
2019-04-22T09:33:20.408Z,96602.66
2019-04-22T09:35:52.155Z,96602.48
2019-04-22T09:38:33.157Z,96589.30
2019-04-22T09:40:45.885Z,96593.43
2019-04-22T09:43:29.202Z,96592.20
2019-04-22T09:45:54.470Z,96586.22
2019-04-22T09:48:23.493Z,96588.02
2019-04-22T09:50:57.492Z,96585.73
2019-04-22T09:53:32.207Z,96584.27
2019-04-22T09:55:56.758Z,96576.84
2019-04-22T09:58:33.583Z,96572.22
2019-04-22T10:01:32.337Z,96573.95
2019-04-22T10:03:50.816Z,96556.84
2019-04-22T10:06:22.502Z,96567.44
2019-04-22T10:09:02.242Z,96548.13
2019-04-22T10:11:26.870Z,96548.81
2019-04-22T10:14:05.557Z,96548.50
2019-04-22T10:19:00.925Z,96543.14
2019-04-22T10:21:35.828Z,96534.23
2019-04-22T10:23:59.604Z,96525.97
2019-04-22T10:26:33.409Z,96524.16
2019-04-22T10:29:08.538Z,96519.42
2019-04-22T10:31:41.111Z,96517.59
2019-04-22T10:33:53.531Z,96519.81
2019-04-22T10:36:09.841Z,96512.51
2019-04-22T10:38:40.211Z,96511.11
2019-04-22T10:41:10.407Z,96506.30
2019-04-22T10:43:41.208Z,96507.06
2019-04-22T10:46:12.114Z,96502.62
2019-04-22T10:48:42.157Z,96500.84
2019-04-22T10:51:12.689Z,96487.83
2019-04-22T10:53:43.764Z,96481.05
2019-04-22T10:56:14.737Z,96491.77
2019-04-22T10:58:44.769Z,96477.81
2019-04-22T11:01:15.839Z,96477.39
2019-04-22T11:03:45.679Z,96480.55
2019-04-22T11:06:17.019Z,96463.87
2019-04-22T11:08:52.838Z,96468.19
2019-04-22T11:11:31.413Z,96465.41
2019-04-22T11:13:49.645Z,96464.13
2019-04-22T11:16:19.489Z,96460.82
2019-04-22T11:18:49.602Z,96453.30
2019-04-22T11:21:19.929Z,96456.71
2019-04-22T11:23:50.406Z,96452.88
2019-04-22T11:26:20.215Z,96454.72
2019-04-22T11:28:49.976Z,96446.05
2019-04-22T11:31:20.627Z,96439.97
2019-04-22T11:33:50.330Z,96437.93
2019-04-22T11:36:19.995Z,96443.80
2019-04-22T11:38:55.973Z,96434.46
2019-04-22T11:41:21.615Z,96428.19
2019-04-22T11:43:51.386Z,96430.83
2019-04-22T11:46:21.138Z,96423.41
2019-04-22T11:48:51.890Z,96415.58
2019-04-22T11:51:22.142Z,96414.05
2019-04-22T11:53:52.604Z,96412.31
2019-04-22T11:56:22.935Z,96410.78
2019-04-22T11:58:52.961Z,96408.83
2019-04-22T12:01:22.585Z,96402.61
2019-04-22T12:03:53.704Z,96393.27
2019-04-22T12:06:24.021Z,96400.06
2019-04-22T12:08:54.207Z,96392.23
2019-04-22T12:11:24.057Z,96389.74
2019-04-22T12:13:54.080Z,96390.15
2019-04-22T12:16:23.705Z,96380.41
2019-04-22T12:18:53.547Z,96381.94
2019-04-22T12:21:23.521Z,96377.74
2019-04-22T12:23:52.989Z,96372.91
2019-04-22T12:26:24.632Z,96369.02
2019-04-22T12:28:55.060Z,96367.06
2019-04-22T12:31:24.717Z,96359.14
2019-04-22T12:33:55.118Z,96359.79
2019-04-22T12:36:24.682Z,96348.39
2019-04-22T12:38:55.327Z,96351.48
2019-04-22T12:41:25.826Z,96346.03
2019-04-22T12:43:55.562Z,96337.20
2019-04-22T12:46:26.035Z,96342.13
2019-04-22T12:48:56.241Z,96333.30
2019-04-22T12:51:27.104Z,96323.41
2019-04-22T12:53:57.194Z,96329.00
2019-04-22T12:56:27.824Z,96322.89
2019-04-22T12:58:57.393Z,96319.95
2019-04-22T13:01:26.974Z,96318.52
2019-04-22T13:04:02.058Z,96311.02
2019-04-22T13:06:27.944Z,96309.44
2019-04-22T13:08:57.477Z,96306.20
2019-04-22T13:11:30.905Z,96296.55
2019-04-22T13:13:59.002Z,96295.94
2019-04-22T13:16:29.326Z,96292.09
2019-04-22T13:19:04.952Z,96291.62
2019-04-22T13:21:31.089Z,96283.16
2019-04-22T13:24:00.749Z,96281.38
2019-04-22T13:26:31.842Z,96275.28
2019-04-22T13:29:03.093Z,96274.44
2019-04-22T13:31:33.072Z,96269.36
2019-04-22T13:34:04.000Z,96262.00
2019-04-22T13:36:34.602Z,96253.41
2019-04-22T13:39:06.963Z,96250.37
2019-04-22T13:41:44.289Z,96258.52
2019-04-22T13:44:09.102Z,96245.68
2019-04-22T13:46:41.110Z,96242.15
2019-04-22T13:49:40.449Z,96239.76
2019-04-22T13:52:18.787Z,96231.67
2019-04-22T13:57:07.957Z,96222.02
2019-04-22T13:59:28.242Z,96234.84
2019-04-22T14:02:16.885Z,96223.22
2019-04-22T14:04:48.362Z,96225.59
2019-04-22T14:07:18.974Z,96217.39
2019-04-22T14:09:48.625Z,96208.92
2019-04-22T14:12:19.777Z,96204.34
2019-04-22T14:14:52.129Z,96204.40
2019-04-22T14:17:21.108Z,96208.94
2019-04-22T14:19:50.893Z,96198.45
2019-04-22T14:22:20.421Z,96194.13
2019-04-22T14:24:49.930Z,96191.13
2019-04-22T14:27:31.666Z,96198.31
2019-04-22T14:29:51.548Z,96188.91
2019-04-22T14:32:25.366Z,96181.31
2019-04-22T14:34:53.208Z,96181.21
2019-04-22T14:37:24.292Z,96169.69
2019-04-22T14:39:53.898Z,96160.07
2019-04-22T14:42:46.709Z,96154.80
2019-04-22T14:45:26.105Z,96153.27
2019-04-22T14:47:51.340Z,96152.53
2019-04-22T14:50:17.853Z,96157.48
2019-04-22T14:52:52.647Z,96144.30
2019-04-22T14:55:09.097Z,96142.58
2019-04-22T14:57:32.312Z,96142.73
2019-04-22T15:00:02.287Z,96135.89
2019-04-22T15:02:31.975Z,96143.27
2019-04-22T15:05:01.505Z,96122.48
2019-04-22T15:07:32.999Z,96127.77
2019-04-22T15:10:04.000Z,96128.00
2019-04-22T15:12:39.282Z,96137.59
2019-04-22T15:15:15.748Z,96128.14
2019-04-22T15:17:52.376Z,96122.65
2019-04-22T15:20:44.124Z,96122.48
2019-04-22T15:23:14.732Z,96123.11
2019-04-22T15:25:44.391Z,96121.74
2019-04-22T15:28:15.248Z,96117.08
2019-04-22T15:30:45.720Z,96115.67
2019-04-22T15:33:15.387Z,96115.80
2019-04-22T15:35:45.219Z,96103.84
2019-04-22T15:38:15.557Z,96110.61
2019-04-22T15:40:45.249Z,96111.11
2019-04-22T15:43:15.030Z,96107.53
2019-04-22T15:45:44.586Z,96102.05
2019-04-22T15:48:14.722Z,96090.86
2019-04-22T15:50:44.720Z,96101.38
2019-04-22T15:53:15.590Z,96093.86
2019-04-22T15:55:45.332Z,96087.09
2019-04-22T15:58:15.446Z,96091.01
2019-04-22T16:00:57.638Z,96084.05
2019-04-22T16:03:16.708Z,96077.84
2019-04-22T16:05:46.286Z,96077.31
2019-04-22T16:08:17.183Z,96086.40
2019-04-22T16:10:48.182Z,96084.23
2019-04-22T16:13:24.266Z,96080.38
2019-04-22T16:15:49.093Z,96075.16
2019-04-22T16:18:20.011Z,96071.81
2019-04-22T16:20:50.293Z,96071.20
2019-04-22T16:23:52.096Z,96074.98
2019-04-22T16:26:42.470Z,96070.69
2019-04-22T16:29:13.544Z,96072.17
2019-04-22T16:31:43.195Z,96067.78
2019-04-22T16:34:13.283Z,96068.23
2019-04-22T16:36:42.968Z,96068.75
2019-04-22T16:39:13.229Z,96071.28
2019-04-22T16:41:44.457Z,96053.42
2019-04-22T16:44:14.428Z,96061.69
2019-04-22T16:46:45.666Z,96059.08
2019-04-22T16:49:15.935Z,96061.40
2019-04-22T16:51:45.905Z,96053.73
2019-04-22T16:54:15.986Z,96055.05
2019-04-22T16:56:45.843Z,96047.47
2019-04-22T16:59:15.308Z,96054.84
2019-04-22T17:02:04.267Z,96046.81
2019-04-22T17:05:02.186Z,96047.03
2019-04-22T17:07:31.990Z,96051.87
2019-04-22T17:10:01.970Z,96045.39
2019-04-22T17:12:43.303Z,96044.95
2019-04-22T17:15:08.025Z,96044.80
2019-04-22T17:17:34.018Z,96047.86
2019-04-22T17:20:04.984Z,96045.40
2019-04-22T17:22:35.534Z,96045.31
2019-04-22T17:25:06.670Z,96044.11
2019-04-22T17:27:37.052Z,96039.73
2019-04-22T17:30:08.522Z,96032.75
2019-04-22T17:32:38.089Z,96042.80
2019-04-22T17:35:08.442Z,96042.64
2019-04-22T17:37:39.605Z,96039.86
2019-04-22T17:40:30.368Z,96043.72
2019-04-22T17:43:00.715Z,96049.75
2019-04-22T17:45:51.549Z,96050.05
2019-04-22T17:49:04.308Z,96052.83
2019-04-22T17:51:31.113Z,96050.08
2019-04-22T17:54:19.126Z,96055.65
2019-04-22T17:56:37.590Z,96060.10
2019-04-22T17:59:10.464Z,96059.33
2019-04-22T18:01:38.002Z,96058.21
2019-04-22T18:03:53.781Z,96058.45
2019-04-22T18:06:51.552Z,96060.89
2019-04-22T18:09:11.326Z,96056.94
2019-04-22T18:11:51.054Z,96060.78
2019-04-22T18:14:29.863Z,96056.94
2019-04-22T18:16:48.883Z,96054.56
2019-04-22T18:19:15.356Z,96058.33
2019-04-22T18:21:47.566Z,96058.83
2019-04-22T18:24:15.173Z,96052.14
2019-04-22T18:27:04.808Z,96052.36
2019-04-22T18:29:27.075Z,96062.67
2019-04-22T18:31:47.805Z,96058.89
2019-04-22T18:34:25.625Z,96053.45
2019-04-22T18:36:58.968Z,96056.05
2019-04-22T18:39:36.950Z,96061.53
2019-04-22T18:42:00.402Z,96061.95
2019-04-22T18:44:35.278Z,96069.03
2019-04-22T18:47:03.664Z,96067.13
2019-04-22T18:49:37.616Z,96073.22
2019-04-22T18:52:47.015Z,96072.91
2019-04-22T18:55:26.532Z,96068.90
2019-04-22T18:58:08.920Z,96070.37
2019-04-22T19:00:29.353Z,96078.73
2019-04-22T19:03:05.340Z,96071.17
2019-04-22T19:05:51.754Z,96078.38
2019-04-22T19:13:54.535Z,96079.90
2019-04-22T19:16:17.202Z,96076.41
2019-04-22T19:21:02.415Z,96074.92
2019-04-22T19:23:32.095Z,96074.31
2019-04-22T19:25:59.064Z,96076.55
2019-04-22T19:28:36.084Z,96071.64
2019-04-22T19:31:10.921Z,96074.42
2019-04-22T19:33:34.813Z,96079.89
2019-04-22T19:36:10.966Z,96078.37
2019-04-22T19:38:28.969Z,96075.70
2019-04-22T19:41:14.814Z,96081.55
2019-04-22T19:43:43.954Z,96078.08
2019-04-22T19:46:08.785Z,96079.84
2019-04-22T19:48:45.041Z,96078.31
2019-04-22T19:51:18.709Z,96085.51
2019-04-22T19:53:47.434Z,96079.77
2019-04-22T19:56:16.400Z,96087.16
2019-04-22T19:58:41.446Z,96085.42
2019-04-22T20:01:47.529Z,96088.30
2019-04-22T20:04:28.651Z,96088.11
2019-04-22T20:06:56.470Z,96083.53
2019-04-22T20:09:35.106Z,96088.25
2019-04-22T20:12:00.578Z,96085.08
2019-04-22T20:14:35.264Z,96081.80
2019-04-22T20:17:00.475Z,96080.16
2019-04-22T20:22:11.450Z,96084.17
2019-04-22T20:24:25.888Z,96088.18
2019-04-22T20:27:13.666Z,96078.85
2019-04-22T20:29:41.696Z,96072.56
2019-04-22T20:32:15.426Z,96069.39
2019-04-22T20:34:53.112Z,96067.44
2019-04-22T20:37:23.693Z,96068.06
2019-04-22T20:39:50.166Z,96068.98
2019-04-22T20:42:29.731Z,96066.43
2019-04-22T20:44:52.269Z,96054.84
2019-04-22T20:47:17.903Z,96055.18
2019-04-22T20:49:54.565Z,96049.64
2019-04-22T20:54:55.810Z,96057.62
2019-04-22T20:57:26.344Z,96059.57
2019-04-22T20:59:51.101Z,96051.36
2019-04-22T21:02:23.865Z,96042.61
2019-04-22T21:04:51.560Z,96045.89
2019-04-22T21:07:26.635Z,96041.16
2019-04-22T21:10:02.383Z,96032.55
2019-04-22T21:12:27.339Z,96030.70
2019-04-22T21:15:06.811Z,96031.83
2019-04-22T21:17:39.059Z,96025.38
2019-04-22T21:22:43.346Z,96029.36
2019-04-22T21:25:08.851Z,96026.16
2019-04-22T21:27:56.528Z,96029.34
2019-04-22T21:30:12.363Z,96020.53
2019-04-22T21:32:45.408Z,96009.86
2019-04-22T21:35:34.658Z,96008.77
2019-04-22T21:37:57.889Z,96013.58
2019-04-22T21:40:24.116Z,96016.02
2019-04-22T21:42:59.678Z,96006.80
2019-04-22T21:45:19.849Z,96012.03
2019-04-22T21:48:04.934Z,96000.96
2019-04-22T21:50:50.192Z,95999.81
2019-04-22T21:53:00.773Z,96000.94
2019-04-22T21:55:36.074Z,95996.12
2019-04-22T21:58:31.299Z,95990.19
2019-04-22T22:01:14.685Z,95980.76
2019-04-22T22:03:40.097Z,95985.36
2019-04-22T22:06:04.503Z,95976.86
2019-04-22T22:08:46.002Z,95974.91
2019-04-22T22:11:15.358Z,95975.11
2019-04-22T22:13:48.128Z,95963.02
2019-04-22T22:16:12.803Z,95968.14
2019-04-22T22:18:50.622Z,95956.26
2019-04-22T22:21:33.629Z,95958.61
2019-04-22T22:23:49.383Z,95952.98
2019-04-22T22:26:15.273Z,95949.50
2019-04-22T22:29:03.529Z,95951.84
2019-04-22T22:31:28.613Z,95948.88
2019-04-22T22:33:54.380Z,95947.86
2019-04-22T22:36:22.103Z,95948.45
2019-04-22T22:38:56.163Z,95938.64
2019-04-22T22:41:07.759Z,95941.80
2019-04-22T22:44:03.435Z,95933.17
2019-04-22T22:46:35.573Z,95933.88
2019-04-22T22:49:23.821Z,95927.74
2019-04-22T22:51:57.352Z,95924.97
2019-04-22T22:54:25.185Z,95920.05
2019-04-22T22:59:25.180Z,95910.13
2019-04-22T23:01:52.763Z,95911.95
2019-04-22T23:04:29.510Z,95911.34
2019-04-22T23:07:06.663Z,95917.98
2019-04-22T23:09:30.603Z,95918.70
2019-04-22T23:14:32.712Z,95904.16
2019-04-22T23:16:51.322Z,95903.84
2019-04-22T23:19:15.618Z,95901.08
2019-04-22T23:21:49.985Z,95899.64
2019-04-22T23:25:07.721Z,95895.45
2019-04-22T23:28:04.407Z,95887.05
2019-04-22T23:30:40.940Z,95887.87
2019-04-22T23:33:26.461Z,95886.43
2019-04-22T23:36:04.186Z,95887.45
2019-04-22T23:38:48.984Z,95879.58
2019-04-22T23:41:39.264Z,95869.47
2019-04-22T23:44:02.070Z,95879.08
2019-04-22T23:46:46.601Z,95869.77
2019-04-22T23:49:18.054Z,95864.23
2019-04-22T23:52:02.707Z,95862.30
2019-04-22T23:54:35.889Z,95862.70
2019-04-22T23:56:52.527Z,95856.45
2019-04-22T23:59:44.517Z,95854.00
